createdAt,value
2022-08-16T00:03:37.784Z,60.94
2022-08-16T00:08:39.546Z,61.64
2022-08-16T00:13:41.746Z,61.78
2022-08-16T00:18:43.784Z,63.01
2022-08-16T00:23:46.229Z,64.55
2022-08-16T00:28:47.922Z,60.69
2022-08-16T00:33:55.998Z,62.39
2022-08-16T00:38:57.679Z,63.87
2022-08-16T00:44:03.526Z,60.68
2022-08-16T00:49:17.689Z,61.92
2022-08-16T00:54:22.489Z,62.46
2022-08-16T00:59:28.800Z,60.50
2022-08-16T01:04:31.042Z,64.20
2022-08-16T01:09:37.382Z,62.75
2022-08-16T01:14:50.899Z,65.98
2022-08-16T01:19:59.090Z,63.37
2022-08-16T01:25:14.369Z,63.79
2022-08-16T01:30:19.379Z,66.23
2022-08-16T01:35:35.047Z,66.46
2022-08-16T01:40:37.557Z,65.55
2022-08-16T01:45:41.475Z,64.39
2022-08-16T01:51:09.032Z,65.20
2022-08-16T01:56:06.418Z,66.40
2022-08-16T02:01:08.571Z,66.92
2022-08-16T02:06:10.333Z,66.04
2022-08-16T02:11:13.448Z,65.62
2022-08-16T02:16:18.364Z,66.42
2022-08-16T02:21:31.574Z,66.61
2022-08-16T02:26:34.333Z,68.74
2022-08-16T02:32:03.949Z,65.48
2022-08-16T02:36:58.558Z,68.89
2022-08-16T02:42:00.326Z,65.98
2022-08-16T02:47:02.486Z,68.17
2022-08-16T02:52:04.373Z,68.00
2022-08-16T02:57:11.245Z,66.61
2022-08-16T03:02:13.351Z,67.78
2022-08-16T03:07:27.295Z,68.48
2022-08-16T03:12:30.382Z,68.76
2022-08-16T03:17:53.262Z,69.13
2022-08-16T03:22:56.503Z,69.85
2022-08-16T03:32:59.627Z,66.61
2022-08-16T03:38:34.372Z,70.59
2022-08-16T03:43:50.687Z,69.99
2022-08-16T03:48:50.107Z,68.36
2022-08-16T03:53:57.692Z,71.58
2022-08-16T03:59:03.048Z,71.84
2022-08-16T04:04:04.602Z,71.58
2022-08-16T04:09:06.190Z,71.85
2022-08-16T04:14:32.813Z,70.31
2022-08-16T04:19:35.422Z,72.40
2022-08-16T04:24:37.649Z,71.75
2022-08-16T04:29:44.221Z,70.93
2022-08-16T04:34:48.082Z,72.35
2022-08-16T04:39:57.189Z,72.77
2022-08-16T04:44:58.897Z,69.28
2022-08-16T04:50:10.413Z,70.99
2022-08-16T04:55:22.811Z,72.87
2022-08-16T05:00:39.176Z,70.62
2022-08-16T05:05:55.381Z,71.79
2022-08-16T05:11:05.753Z,71.17
2022-08-16T05:16:11.670Z,70.95
2022-08-16T05:21:13.618Z,68.75
2022-08-16T05:26:20.354Z,72.47
2022-08-16T05:31:21.956Z,72.47
2022-08-16T05:36:24.835Z,70.86
2022-08-16T05:41:45.667Z,71.04
2022-08-16T05:46:47.517Z,69.34
2022-08-16T05:51:48.991Z,69.10
2022-08-16T05:56:50.426Z,69.48
2022-08-16T06:01:52.237Z,68.97
2022-08-16T06:06:56.566Z,65.15
2022-08-16T06:12:00.600Z,65.16
2022-08-16T06:17:05.550Z,65.98
2022-08-16T06:22:07.123Z,68.06
2022-08-16T06:27:10.777Z,64.25
2022-08-16T06:32:13.396Z,67.53
2022-08-16T06:37:37.624Z,64.23
2022-08-16T06:42:47.591Z,64.45
2022-08-16T06:47:53.245Z,65.86
2022-08-16T06:53:00.449Z,67.26
2022-08-16T06:58:22.157Z,66.55
2022-08-16T07:03:27.721Z,65.32
2022-08-16T07:08:30.153Z,64.14
2022-08-16T07:19:01.454Z,65.40
2022-08-16T07:24:07.426Z,63.91
2022-08-16T07:29:10.359Z,63.74
2022-08-16T07:34:11.799Z,62.51
2022-08-16T07:39:14.049Z,62.81
2022-08-16T07:44:16.892Z,63.17
2022-08-16T07:49:18.978Z,62.12
2022-08-16T07:54:37.727Z,61.29
2022-08-16T07:59:42.841Z,60.91
2022-08-16T08:04:49.056Z,59.32
2022-08-16T08:09:51.935Z,59.40
2022-08-16T08:14:54.394Z,59.45
2022-08-16T08:19:55.824Z,59.29
2022-08-16T08:24:58.909Z,58.11
2022-08-16T08:30:50.113Z,58.61
2022-08-16T08:35:24.444Z,57.69
2022-08-16T08:40:30.576Z,57.43
2022-08-16T08:45:49.310Z,58.16
2022-08-16T08:50:53.687Z,56.62
2022-08-16T08:55:58.732Z,56.01
2022-08-16T09:01:01.646Z,55.16
2022-08-16T09:06:05.970Z,54.56
2022-08-16T09:11:08.522Z,53.88
2022-08-16T09:16:14.768Z,54.85
2022-08-16T09:21:37.420Z,54.66
2022-08-16T09:26:45.954Z,53.66
2022-08-16T09:31:53.598Z,53.51
2022-08-16T09:36:57.979Z,53.74
2022-08-16T09:42:02.909Z,52.28
2022-08-16T09:47:10.293Z,52.52
2022-08-16T09:52:12.076Z,51.83
2022-08-16T09:57:13.691Z,51.37
2022-08-16T10:02:26.197Z,51.98
2022-08-16T10:07:44.032Z,52.49
2022-08-16T10:13:05.384Z,50.12
2022-08-16T10:18:40.960Z,49.85
2022-08-16T10:23:30.786Z,49.70
2022-08-16T10:28:39.937Z,49.96
2022-08-16T10:33:44.305Z,50.12
2022-08-16T10:38:45.870Z,48.52
2022-08-16T10:43:47.735Z,48.25
2022-08-16T10:48:52.400Z,47.62
2022-08-16T10:53:54.027Z,49.88
2022-08-16T10:59:29.574Z,47.75
2022-08-16T11:09:43.831Z,47.04
2022-08-16T11:30:57.625Z,48.27
2022-08-16T11:41:21.139Z,44.69
2022-08-16T11:46:45.142Z,45.05
2022-08-16T11:51:45.322Z,45.56
2022-08-16T11:56:53.069Z,44.15
2022-08-16T12:02:04.155Z,47.02
2022-08-16T12:07:21.328Z,45.02
2022-08-16T12:12:28.539Z,43.65
2022-08-16T12:17:32.077Z,46.41
2022-08-16T12:22:36.569Z,45.53
2022-08-16T12:27:39.457Z,45.36
2022-08-16T12:32:42.178Z,45.55
2022-08-16T12:37:46.249Z,45.39
2022-08-16T12:42:52.968Z,43.76
2022-08-16T12:48:34.554Z,41.67
2022-08-16T12:53:36.056Z,44.06
2022-08-16T12:58:49.769Z,43.72
2022-08-16T13:04:11.447Z,44.74
2022-08-16T13:09:26.770Z,42.92
2022-08-16T13:14:35.393Z,45.05
2022-08-16T13:20:05.935Z,43.15
2022-08-16T13:24:58.432Z,43.67
2022-08-16T13:29:59.887Z,43.13
2022-08-16T13:35:01.658Z,42.68
2022-08-16T13:40:04.666Z,42.86
2022-08-16T13:45:08.979Z,44.04
2022-08-16T13:50:17.318Z,42.31
2022-08-16T13:55:33.030Z,42.58
2022-08-16T14:00:34.502Z,42.85
2022-08-16T14:05:36.491Z,44.65
2022-08-16T14:10:37.998Z,41.33
2022-08-16T14:15:41.928Z,43.37
2022-08-16T14:20:48.282Z,44.04
2022-08-16T14:25:53.809Z,43.02
2022-08-16T14:30:56.603Z,42.90
2022-08-16T14:35:58.930Z,41.46
2022-08-16T14:41:00.810Z,42.77
2022-08-16T14:46:04.634Z,43.17
2022-08-16T14:51:09.042Z,43.29
2022-08-16T14:56:17.554Z,42.49
2022-08-16T15:01:59.341Z,42.20
2022-08-16T15:06:53.243Z,41.47
2022-08-16T15:11:56.941Z,41.91
2022-08-16T15:16:59.099Z,42.33
2022-08-16T15:22:01.455Z,39.55
2022-08-16T15:27:06.111Z,42.04
2022-08-16T15:32:12.095Z,41.45
2022-08-16T15:37:42.682Z,41.60
2022-08-16T15:42:54.015Z,41.90
2022-08-16T15:47:56.746Z,41.92
2022-08-16T15:53:01.012Z,42.33
2022-08-16T15:58:35.011Z,41.86
2022-08-16T16:03:27.059Z,42.83
2022-08-16T16:08:30.174Z,40.51
2022-08-16T16:13:33.265Z,42.62
2022-08-16T16:18:35.747Z,43.10
2022-08-16T16:23:53.785Z,39.52
2022-08-16T16:29:08.604Z,41.63
2022-08-16T16:34:16.655Z,41.91
2022-08-16T16:39:18.242Z,41.91
2022-08-16T16:44:31.765Z,41.51
2022-08-16T16:49:35.422Z,41.44
2022-08-16T16:54:43.140Z,40.53
2022-08-16T16:59:48.657Z,42.02
2022-08-16T17:04:57.079Z,39.62
2022-08-16T17:09:59.234Z,40.29
2022-08-16T17:15:02.847Z,41.98
2022-08-16T17:20:12.673Z,39.81
2022-08-16T17:25:14.818Z,40.96
2022-08-16T17:30:21.904Z,40.91
2022-08-16T17:35:37.922Z,39.20
2022-08-16T17:40:48.696Z,38.94
2022-08-16T17:45:57.921Z,40.73
2022-08-16T17:50:59.822Z,39.62
2022-08-16T17:56:01.652Z,41.04
2022-08-16T18:01:03.349Z,39.86
2022-08-16T18:06:07.494Z,39.24
2022-08-16T18:11:09.157Z,39.79
2022-08-16T18:16:11.780Z,40.61
2022-08-16T18:21:33.252Z,40.39
2022-08-16T18:26:34.909Z,40.16
2022-08-16T18:31:36.972Z,40.39
2022-08-16T18:36:38.424Z,40.63
2022-08-16T18:41:40.110Z,41.03
2022-08-16T18:46:43.603Z,41.41
2022-08-16T18:51:45.668Z,41.41
2022-08-16T18:56:55.385Z,41.70
2022-08-16T19:02:04.833Z,42.40
2022-08-16T19:07:07.097Z,42.51
2022-08-16T19:12:08.916Z,42.16
2022-08-16T19:17:11.191Z,42.37
2022-08-16T19:22:12.625Z,42.37
2022-08-16T19:27:14.339Z,42.51
2022-08-16T19:32:24.327Z,42.52
2022-08-16T19:37:26.659Z,43.12
2022-08-16T19:42:29.387Z,42.95
2022-08-16T19:47:31.634Z,43.21
2022-08-16T19:52:34.001Z,43.97
2022-08-16T19:57:35.685Z,44.13
2022-08-16T20:02:45.387Z,44.22
2022-08-16T20:07:46.907Z,44.85
2022-08-16T20:13:02.286Z,44.76
2022-08-16T20:18:04.538Z,44.31
2022-08-16T20:23:25.178Z,45.24
2022-08-16T20:28:40.106Z,44.97
2022-08-16T20:33:48.702Z,44.72
2022-08-16T20:38:51.659Z,46.37
2022-08-16T20:43:54.960Z,45.19
2022-08-16T20:48:56.610Z,45.68
2022-08-16T20:53:58.086Z,45.29
2022-08-16T20:59:00.384Z,45.34
2022-08-16T21:04:01.920Z,44.95
2022-08-16T21:09:04.649Z,45.48
2022-08-16T21:14:11.605Z,45.04
2022-08-16T21:19:13.159Z,46.07
2022-08-16T21:24:15.441Z,46.12
2022-08-16T21:29:17.154Z,45.93
2022-08-16T21:34:18.637Z,45.87
2022-08-16T21:39:20.071Z,45.87
2022-08-16T21:44:21.465Z,45.99
2022-08-16T21:49:22.887Z,45.67
2022-08-16T21:54:24.320Z,46.23
2022-08-16T21:59:25.826Z,46.83
2022-08-16T22:04:38.276Z,45.97
2022-08-16T22:09:40.123Z,45.62
2022-08-16T22:14:41.617Z,46.85
2022-08-16T22:19:43.577Z,46.81
2022-08-16T22:24:45.091Z,46.77
2022-08-16T22:29:46.539Z,47.27
2022-08-16T22:34:48.635Z,48.21
2022-08-16T22:39:50.150Z,48.28
2022-08-16T22:44:52.432Z,49.72
2022-08-16T22:49:53.838Z,49.56
2022-08-16T22:54:55.289Z,50.63
2022-08-16T22:59:56.688Z,51.55
2022-08-16T23:04:58.233Z,51.40
2022-08-16T23:10:01.398Z,49.30
2022-08-16T23:15:04.559Z,49.38
2022-08-16T23:20:06.983Z,49.19
2022-08-16T23:25:13.659Z,52.45
2022-08-16T23:30:16.314Z,50.71
2022-08-16T23:35:20.547Z,51.97
2022-08-16T23:40:22.789Z,50.80
2022-08-16T23:45:33.459Z,51.11
2022-08-16T23:50:37.671Z,52.84
2022-08-16T23:55:41.072Z,51.30
